Main page
METAR-TAF:

METAR-TAF

Airports :

Dundee Airport

Dundee, Scotland

latitude: 56-27N, longitude: 003-01W, elevation: 4 m

Current weather observation

The report was made 5 hours and 16 minutes ago, at 19:20 UTC
Wind 8 kt from the East, varying between East/Northeast and Southeast
Temperature 10°C
Humidity 87%
Pressure 1028 hPa
Visibility 10 km or more
Scattered clouds at a height of 1000 ft

METAR: EGPN 231920Z 10008KT 070V130 9999 SCT010 10/08 Q1028

Time: 01:36 (00:36 UTC)

Forecast

The report was made 7 hours and 38 minutes ago, at 16:58 UTC
Forecast valid from 23 at 18 UTC to 23 at 20 UTC
Wind 6 kt from the East
Visibility 10 km or more
Few clouds at a height of 2000 ft
Temporary
from 23 at 18 UTC to 23 at 20 UTC
Broken clouds at a height of 500 ft

TAF: EGPN 231658Z 2318/2320 10006KT 9999 FEW020 TEMPO 2318/2320 BKN005

Weather observations and forecasts of more than 4000 airports (METAR and TAF reports).

The available stations are represented by yellow and red dots on the map.

Hover mouse over dot to see the name of the station.

Then click to see weather observations and forecasts.

To change the map : click on the green buttons with a black cross to zoom in, on the green button with a dash to zoom out, or on the green arrows for adjacent maps.


METAR-TAF: